KCRG/CRG METAR and TAF weather

Enter ICAO airport designator
Station Type Date Time Source
KCRG METAR 2019/04/25 21:53 UTC NOAA

KCRG 252153Z 13010KT 10SM CLR 26/19 A2993 RMK AO2 SLP136 T02560189


Station Type Date Time Source
KCRG Decoded METAR 2019/04/25 21:53 UTC NOAA

JACKSONVILLE CRAIG MUN, FL, United States (KCRG) 30-20N 81-31W 13M
Apr 25, 2019 - 05:53 PM EDT / 2019.04.25 2153 UTC
Wind: from the SE (130 degrees) at 12 MPH (10 KT):0
Visibility: 10 mile(s):0
Sky conditions: clear
Temperature: 78.1 F (25.6 C)
Dew Point: 66.0 F (18.9 C)
Relative Humidity: 66%
Pressure (altimeter): 29.93 in. Hg (1013 hPa)
ob: KCRG 252153Z 13010KT 10SM CLR 26/19 A2993 RMK AO2 SLP136 T02560189
cycle: 22

Station Type Date Time Source
KCRG TAF 2019/04/25 18:24 UTC NOAA

TAF KCRG 251720Z 2518/2618 15011KT P6SM FEW050 BKN200
FM260200 18008KT P6SM FEW060 BKN200
FM260900 21008KT P6SM VCSH SCT030 OVC050
FM261300 23012KT P6SM VCSH SCT025 BKN035
FM261600 25015G25KT P6SM SCT030 BKN050

Example: see airport list